Time;durP1;ratioP1;P1;durP2;ratioP2;P2;SDS_P1;SDS_P2;PMS_P1;PMS_P2;Temp;Humidity;BMP_temperature;BMP_pressure;BME280_temperature;BME280_humidity;BME280_pressure;Samples;Min_cycle;Max_cycle;Signal;HPM_P1;HPM_P2
2023/05/29 00:02:02;;;;;;;7.97;3.35;;;;;;;11.60;76.98;102665.22;6074457;19;20097;-76
2023/05/29 00:04:21;;;;;;;13.23;3.30;;;;;;;11.59;77.09;102666.13;6072539;19;20023;-74
2023/05/29 00:06:27;;;;;;;11.82;3.20;;;;;;;11.52;76.87;102654.81;6082431;19;20018;-74
2023/05/29 00:08:32;;;;;;;16.00;3.97;;;;;;;11.47;77.43;102658.41;6098441;19;20313;-75
2023/05/29 00:10:38;;;;;;;9.95;3.30;;;;;;;11.50;77.44;102666.25;6077499;19;20501;-75
2023/05/29 00:12:46;;;;;;;14.30;3.53;;;;;;;11.48;77.30;102655.75;6102968;19;20018;-78
2023/05/29 00:15:03;;;;;;;11.88;3.10;;;;;;;11.46;77.26;102659.31;6102535;19;20008;-75
2023/05/29 00:17:15;;;;;;;14.60;3.15;;;;;;;11.44;77.81;102659.31;6102919;19;20002;-75
2023/05/29 00:19:24;;;;;;;10.67;3.70;;;;;;;11.43;77.47;102653.19;6082581;19;20074;-76
2023/05/29 00:21:35;;;;;;;15.93;3.95;;;;;;;11.41;77.80;102654.97;6105840;19;20010;-75
2023/05/29 00:23:46;;;;;;;7.18;2.90;;;;;;;11.41;77.93;102652.34;6100226;19;20311;-75
2023/05/29 00:26:01;;;;;;;13.57;3.20;;;;;;;11.41;77.78;102654.09;6097972;19;20460;-76
2023/05/29 00:28:07;;;;;;;13.65;3.80;;;;;;;11.37;77.66;102655.03;6076160;19;20360;-75
2023/05/29 00:30:21;;;;;;;11.80;2.78;;;;;;;11.36;78.10;102655.94;6095222;19;20019;-76
2023/05/29 00:32:30;;;;;;;20.40;4.73;;;;;;;11.30;78.26;102656.91;6098844;19;20050;-77
2023/05/29 00:34:38;;;;;;;14.45;4.40;;;;;;;11.28;78.31;102653.41;6103280;19;20018;-75
2023/05/29 00:36:50;;;;;;;10.77;3.50;;;;;;;11.27;78.25;102658.69;6071375;19;20086;-76
2023/05/29 00:39:01;;;;;;;9.35;3.15;;;;;;;11.28;78.29;102663.06;6100299;19;20617;-75
2023/05/29 00:41:06;;;;;;;11.88;2.92;;;;;;;11.25;78.32;102674.50;6078530;19;20046;-75
2023/05/29 00:43:12;;;;;;;18.92;3.25;;;;;;;11.20;78.46;102669.31;6101025;19;20009;-75
2023/05/29 00:45:42;;;;;;;11.93;3.08;;;;;;;11.21;78.99;102678.94;6095732;19;20442;-75
2023/05/29 00:47:54;;;;;;;9.00;3.60;;;;;;;11.12;78.88;102680.84;6105200;19;20031;-75
2023/05/29 00:50:01;;;;;;;8.95;2.90;;;;;;;11.17;78.77;102681.66;6094628;19;20019;-75
2023/05/29 00:52:09;;;;;;;9.38;2.80;;;;;;;11.11;78.85;102686.97;6098101;19;20022;-76
2023/05/29 00:54:20;;;;;;;13.77;2.90;;;;;;;11.12;79.05;102689.59;6105879;19;20609;-76
2023/05/29 00:56:29;;;;;;;8.35;2.55;;;;;;;11.12;79.20;102692.22;6090357;19;20340;-77
2023/05/29 00:58:40;;;;;;;13.77;3.40;;;;;;;11.08;79.28;102692.28;6103015;19;20040;-75
2023/05/29 01:00:52;;;;;;;8.70;3.20;;;;;;;11.09;79.11;102694.03;6105815;19;20014;-75
2023/05/29 01:03:09;;;;;;;6.68;2.30;;;;;;;11.03;79.09;102694.97;6106593;19;20035;-76
2023/05/29 01:05:21;;;;;;;15.73;3.03;;;;;;;11.05;79.45;102697.56;6091106;19;20103;-76
2023/05/29 01:07:27;;;;;;;10.63;3.08;;;;;;;11.02;79.34;102701.13;6101729;19;20006;-74
2023/05/29 01:09:34;;;;;;;7.97;2.80;;;;;;;10.99;79.49;102696.75;6101915;19;20048;-75
2023/05/29 01:11:50;;;;;;;10.40;2.83;;;;;;;10.98;79.55;102697.66;6103341;19;20084;-75
2023/05/29 01:14:01;;;;;;;10.25;2.95;;;;;;;10.99;79.84;102699.41;6071653;19;20006;-75
2023/05/29 01:16:20;;;;;;;15.25;3.65;;;;;;;10.91;79.78;102695.13;6065025;19;21131;-76
2023/05/29 01:18:42;;;;;;;10.05;2.70;;;;;;;10.93;79.85;102698.63;6090105;19;20493;-76
2023/05/29 01:20:58;;;;;;;14.38;2.95;;;;;;;10.94;79.77;102700.34;6091199;19;20007;-76
2023/05/29 01:23:29;;;;;;;10.43;3.13;;;;;;;10.95;79.25;102696.81;6084995;19;20825;-76
2023/05/29 01:25:50;;;;;;;7.38;2.35;;;;;;;10.94;79.56;102706.47;6094814;19;20006;-74
2023/05/29 01:28:00;;;;;;;13.23;3.00;;;;;;;10.92;79.11;102708.25;6071998;19;20023;-76
2023/05/29 01:30:10;;;;;;;9.60;2.30;;;;;;;10.94;79.20;102703.84;6089344;19;20036;-76
2023/05/29 01:32:19;;;;;;;8.15;2.83;;;;;;;10.90;78.86;102707.41;6075307;19;20014;-76
2023/05/29 01:34:30;;;;;;;14.05;3.15;;;;;;;10.89;79.25;102713.53;6087975;19;20010;-76
2023/05/29 01:36:41;;;;;;;11.07;2.67;;;;;;;10.91;78.88;102703.88;6096961;19;20056;-75
2023/05/29 01:38:48;;;;;;;9.13;2.75;;;;;;;10.94;78.82;102697.72;6082820;19;19998;-76
2023/05/29 01:40:56;;;;;;;10.32;2.92;;;;;;;10.92;78.51;102708.25;6096358;19;20368;-76
2023/05/29 01:43:06;;;;;;;9.13;2.60;;;;;;;10.93;78.40;102707.38;6088366;19;20443;-75
2023/05/29 01:45:23;;;;;;;12.23;3.53;;;;;;;10.90;78.39;102696.00;6091960;19;20017;-75
2023/05/29 01:47:30;;;;;;;12.57;2.60;;;;;;;10.90;78.38;102706.50;6093051;19;20014;-75
2023/05/29 01:49:39;;;;;;;11.10;2.63;;;;;;;10.88;78.03;102710.94;6064643;19;20015;-75
2023/05/29 01:51:47;;;;;;;9.90;2.40;;;;;;;10.85;78.09;102708.34;6088922;19;20015;-75
2023/05/29 01:53:54;;;;;;;8.20;3.03;;;;;;;10.82;78.22;102717.16;6083114;19;20011;-75
2023/05/29 01:56:00;;;;;;;10.70;3.13;;;;;;;10.77;78.05;102717.19;6089846;19;20010;-75
2023/05/29 01:58:10;;;;;;;10.82;2.88;;;;;;;10.77;78.11;102718.97;6089537;19;20088;-75
2023/05/29 02:00:20;;;;;;;12.35;2.65;;;;;;;10.72;78.07;102721.63;6087666;19;20086;-76
2023/05/29 02:02:29;;;;;;;10.05;2.60;;;;;;;10.77;78.57;102724.22;6087746;19;20017;-75
2023/05/29 02:04:39;;;;;;;11.93;2.53;;;;;;;10.80;78.10;102728.59;6098858;19;20423;-75
2023/05/29 02:06:52;;;;;;;15.55;3.40;;;;;;;10.78;77.90;102731.22;6088913;19;20007;-77
2023/05/29 02:09:06;;;;;;;10.40;2.75;;;;;;;10.79;78.30;102732.94;6096289;19;20054;-74
2023/05/29 02:11:12;;;;;;;13.27;4.05;;;;;;;10.84;77.62;102733.75;6084049;19;20483;-75
2023/05/29 02:13:30;;;;;;;13.25;3.47;;;;;;;10.83;77.98;102724.16;6092478;19;20007;-76
2023/05/29 02:15:35;;;;;;;9.90;2.75;;;;;;;10.84;77.80;102725.00;6083741;19;20048;-76
2023/05/29 02:17:44;;;;;;;6.00;2.60;;;;;;;10.82;77.56;102732.03;6089084;19;20142;-76
2023/05/29 02:19:49;;;;;;;13.88;2.85;;;;;;;10.79;77.73;102719.78;6084174;19;20003;-76
2023/05/29 02:21:58;;;;;;;9.80;3.30;;;;;;;10.79;78.01;102726.81;6050657;19;20020;-75
2023/05/29 02:24:06;;;;;;;9.70;2.85;;;;;;;10.76;77.72;102717.19;6061852;19;20010;-76
2023/05/29 02:26:12;;;;;;;11.05;2.88;;;;;;;10.79;77.60;102727.69;6086888;19;20035;-75
2023/05/29 02:28:18;;;;;;;12.65;3.60;;;;;;;10.79;78.00;102722.44;6087341;19;20476;-75
2023/05/29 02:30:31;;;;;;;10.32;2.45;;;;;;;10.77;78.04;102721.59;6085306;19;20040;-76
2023/05/29 02:32:45;;;;;;;9.27;2.50;;;;;;;10.73;78.40;102722.50;6084457;19;20011;-75
2023/05/29 02:35:02;;;;;;;5.82;2.67;;;;;;;10.75;78.37;102721.59;6090639;19;20019;-76
2023/05/29 02:37:12;;;;;;;5.60;2.40;;;;;;;10.85;78.10;102721.47;6074542;19;20992;-76
2023/05/29 02:39:19;;;;;;;6.97;2.75;;;;;;;10.84;77.83;102725.88;6086362;19;20014;-75
2023/05/29 02:41:26;;;;;;;9.73;2.58;;;;;;;10.85;78.17;102725.00;6077898;19;19999;-75
2023/05/29 02:43:35;;;;;;;12.13;2.97;;;;;;;10.85;77.89;102732.91;6074380;19;20048;-76
2023/05/29 02:45:45;;;;;;;9.13;3.05;;;;;;;10.91;77.76;102717.03;6089437;19;20010;-75
2023/05/29 02:47:54;;;;;;;10.32;2.50;;;;;;;10.90;77.64;102715.31;6085915;19;20002;-76
2023/05/29 02:50:00;;;;;;;9.38;2.45;;;;;;;10.91;77.66;102727.56;6086599;19;20010;-75
2023/05/29 02:52:15;;;;;;;;;;;;;;;;;;;;;
2023/05/29 02:54:22;;;;;;;14.30;3.35;;;;;;;10.92;77.40;102723.16;6093178;19;20486;-75
2023/05/29 02:56:35;;;;;;;12.48;3.03;;;;;;;10.96;77.28;102722.25;6094705;19;20013;-75
2023/05/29 02:58:42;;;;;;;10.00;2.58;;;;;;;10.96;77.23;102725.75;6096874;19;20462;-76
2023/05/29 03:00:55;;;;;;;13.02;2.85;;;;;;;10.97;77.17;102727.47;6072830;19;20010;-75
2023/05/29 03:03:01;;;;;;;8.18;2.25;;;;;;;11.00;76.97;102726.56;6086556;19;20079;-76
2023/05/29 03:05:10;;;;;;;13.40;3.15;;;;;;;11.01;77.14;102727.47;6071504;19;20035;-75
2023/05/29 03:07:15;;;;;;;11.65;3.17;;;;;;;10.99;76.64;102730.09;6074636;19;20032;-75
2023/05/29 03:09:24;;;;;;;13.45;2.50;;;;;;;11.03;76.96;102730.91;6081251;19;20010;-74
2023/05/29 03:11:32;;;;;;;13.70;2.92;;;;;;;11.02;76.74;102729.19;6097268;19;20007;-75
2023/05/29 03:13:46;;;;;;;12.27;2.70;;;;;;;10.97;76.99;102735.38;6097113;19;20002;-76
2023/05/29 03:15:56;;;;;;;17.80;3.20;;;;;;;11.05;77.05;102735.28;6072729;19;20350;-76
2023/05/29 03:18:04;;;;;;;15.02;2.70;;;;;;;11.04;76.79;102738.81;6088567;19;20739;-76
2023/05/29 03:20:16;;;;;;;12.20;2.50;;;;;;;11.10;76.34;102737.88;6072985;19;20007;-75
2023/05/29 03:22:24;;;;;;;6.83;1.97;;;;;;;11.13;76.37;102733.41;6094938;19;20840;-76
2023/05/29 03:24:30;;;;;;;8.48;2.63;;;;;;;11.12;76.13;102728.19;6090957;19;20015;-77
2023/05/29 03:26:38;;;;;;;11.52;2.42;;;;;;;11.08;76.27;102724.72;6092188;19;20021;-74
2023/05/29 03:28:51;;;;;;;9.27;2.38;;;;;;;11.12;76.26;102717.66;6093883;19;20223;-77
2023/05/29 03:31:01;;;;;;;7.95;2.05;;;;;;;11.10;75.99;102725.56;6096369;19;20006;-75
2023/05/29 03:33:13;;;;;;;8.73;2.67;;;;;;;11.11;76.18;102718.53;6083387;19;20019;-75
2023/05/29 03:35:20;;;;;;;13.63;2.40;;;;;;;11.09;76.05;102722.97;6092456;19;20055;-75
2023/05/29 03:37:27;;;;;;;10.95;2.53;;;;;;;11.13;75.86;102714.13;6091802;19;20027;-76
2023/05/29 03:39:35;;;;;;;10.15;2.85;;;;;;;11.08;76.37;102724.72;6091526;19;20397;-74
2023/05/29 03:41:43;;;;;;;12.85;2.78;;;;;;;11.15;76.88;102725.53;6095506;19;20022;-75
2023/05/29 03:43:50;;;;;;;10.98;2.83;;;;;;;11.20;77.15;102721.06;6083030;19;20042;-76
2023/05/29 03:45:55;;;;;;;7.78;2.20;;;;;;;11.17;77.29;102729.00;6089455;19;21186;-76
2023/05/29 03:48:22;;;;;;;8.77;2.33;;;;;;;11.23;77.10;102728.91;6069406;19;20035;-75
2023/05/29 03:50:36;;;;;;;9.27;2.90;;;;;;;11.21;77.17;102734.19;6079439;19;20361;-75
2023/05/29 03:52:44;;;;;;;7.80;2.47;;;;;;;11.21;77.74;102735.97;6102721;19;20003;-75
2023/05/29 03:54:50;;;;;;;9.98;2.55;;;;;;;11.22;77.47;102742.97;6106850;19;20015;-77
2023/05/29 03:57:02;;;;;;;10.05;2.47;;;;;;;11.19;77.21;102740.41;6107050;19;20010;-76
2023/05/29 03:59:09;;;;;;;11.43;2.70;;;;;;;11.17;76.91;102742.16;6067572;19;20014;-75
2023/05/29 04:01:15;;;;;;;10.90;2.58;;;;;;;11.05;76.63;102739.69;6110009;19;20412;-75
2023/05/29 04:03:26;;;;;;;9.23;2.42;;;;;;;11.02;77.01;102747.59;6114510;19;20016;-75
2023/05/29 04:05:32;;;;;;;10.10;2.33;;;;;;;11.02;76.62;102742.34;6084761;19;20010;-75
2023/05/29 04:07:42;;;;;;;9.23;2.63;;;;;;;11.02;76.32;102747.59;6108533;19;20007;-76
2023/05/29 04:09:47;;;;;;;9.38;2.35;;;;;;;10.99;76.17;102743.25;6106723;19;20002;-77
2023/05/29 04:11:54;;;;;;;8.40;2.67;;;;;;;10.97;75.88;102742.41;6101452;19;20006;-77
2023/05/29 04:13:59;;;;;;;10.27;2.88;;;;;;;10.93;76.05;102749.47;6081235;19;20025;-74
2023/05/29 04:16:08;;;;;;;11.15;2.75;;;;;;;10.95;76.00;102752.06;6088778;19;20015;-74
2023/05/29 04:18:16;;;;;;;9.00;2.92;;;;;;;10.96;75.95;102752.06;6086773;19;20030;-75
2023/05/29 04:20:24;;;;;;;11.95;3.17;;;;;;;10.92;75.39;102752.97;6073055;19;20030;-75
2023/05/29 04:22:37;;;;;;;8.35;2.42;;;;;;;10.93;75.52;102752.09;6094379;19;20295;-76
2023/05/29 04:24:44;;;;;;;;;;;;;;;10.94;75.79;102751.19;6097867;19;20950;-75
2023/05/29 04:26:51;;;;;;;8.95;2.70;;;;;;;10.91;75.07;102759.13;6090802;19;20006;-75
2023/05/29 04:29:01;;;;;;;9.52;2.45;;;;;;;10.94;75.23;102761.72;6092715;19;20011;-75
2023/05/29 04:31:16;;;;;;;9.90;2.63;;;;;;;10.93;75.05;102764.38;6093433;19;20006;-76
2023/05/29 04:33:23;;;;;;;9.02;2.60;;;;;;;10.96;74.69;102767.84;6095105;19;20055;-76
2023/05/29 04:35:34;;;;;;;10.38;2.38;;;;;;;10.96;74.27;102757.31;6091235;19;20014;-75
2023/05/29 04:37:46;;;;;;;9.13;2.15;;;;;;;10.93;74.25;102774.91;6091231;19;20007;-74
2023/05/29 04:39:54;;;;;;;9.00;2.20;;;;;;;10.94;73.90;102761.72;6095310;19;20006;-79
2023/05/29 04:42:02;;;;;;;13.15;2.88;;;;;;;10.94;74.31;102766.09;6094202;19;20023;-79
2023/05/29 04:44:11;;;;;;;12.63;3.63;;;;;;;10.98;73.82;102765.19;6094959;19;20014;-80
2023/05/29 04:46:16;;;;;;;8.15;2.17;;;;;;;11.03;73.47;102773.88;6075807;19;20010;-79
2023/05/29 04:48:21;;;;;;;15.07;2.65;;;;;;;11.05;73.46;102771.25;6097548;19;20019;-82
2023/05/29 04:50:30;;;;;;;10.20;3.10;;;;;;;11.06;73.10;102775.59;6101760;19;20007;-80
2023/05/29 04:52:39;;;;;;;11.35;2.90;;;;;;;11.01;73.12;102773.06;6100749;19;20039;-81
2023/05/29 04:54:47;;;;;;;10.77;3.40;;;;;;;11.05;72.99;102787.91;6100594;19;20023;-81
2023/05/29 04:56:55;;;;;;;9.70;2.72;;;;;;;11.04;73.04;102786.16;6099215;19;19995;-79
2023/05/29 04:59:04;;;;;;;10.13;2.83;;;;;;;11.15;72.72;102780.78;6100552;19;20488;-79
2023/05/29 05:01:14;;;;;;;14.13;3.08;;;;;;;11.20;73.04;102787.72;6081689;19;20031;-81
2023/05/29 05:03:24;;;;;;;8.45;2.50;;;;;;;11.29;72.22;102786.72;6102620;19;20020;-79
2023/05/29 05:05:33;;;;;;;9.93;2.60;;;;;;;11.30;72.02;102785.84;6104868;19;20026;-79
2023/05/29 05:07:41;;;;;;;13.98;2.90;;;;;;;11.41;72.02;102789.22;6099699;19;20011;-79
2023/05/29 05:09:47;;;;;;;9.15;2.67;;;;;;;11.45;70.93;102790.03;6101860;19;20019;-80
2023/05/29 05:11:58;;;;;;;12.85;3.10;;;;;;;11.58;71.10;102791.63;6082918;19;20015;-79
2023/05/29 05:14:02;;;;;;;9.52;2.60;;;;;;;11.60;70.28;102787.22;6103569;19;20015;-79
2023/05/29 05:16:10;;;;;;;11.57;2.53;;;;;;;11.62;70.17;102789.84;6081860;19;20055;-80
2023/05/29 05:18:15;;;;;;;11.20;3.10;;;;;;;11.64;70.57;102786.28;6108879;19;20082;-79
2023/05/29 05:20:21;;;;;;;7.07;2.50;;;;;;;11.54;70.73;102794.34;6107716;19;20662;-79
2023/05/29 05:22:31;;;;;;;11.02;3.22;;;;;;;11.58;70.69;102786.34;6112667;19;20683;-80
2023/05/29 05:24:41;;;;;;;10.18;2.53;;;;;;;11.67;70.03;102801.19;6106276;19;21368;-80
2023/05/29 05:26:48;;;;;;;16.95;3.05;;;;;;;11.65;69.61;102792.44;6106858;19;20002;-80
2023/05/29 05:28:55;;;;;;;10.02;2.50;;;;;;;11.83;69.08;102802.69;6108494;19;20006;-80
2023/05/29 05:31:01;;;;;;;13.15;2.90;;;;;;;12.04;68.59;102787.50;6106979;19;20002;-80
2023/05/29 05:33:16;;;;;;;7.72;2.58;;;;;;;12.08;68.59;102790.09;6110540;19;20082;-79
2023/05/29 05:35:22;;;;;;;11.57;3.05;;;;;;;12.18;68.40;102796.06;6110254;19;20010;-79
2023/05/29 05:37:27;;;;;;;10.95;2.60;;;;;;;12.43;67.66;102795.69;6105817;19;20594;-80
2023/05/29 05:39:32;;;;;;;7.75;2.90;;;;;;;12.46;67.13;102790.34;6095864;19;20037;-80
2023/05/29 05:42:01;;;;;;;12.40;3.50;;;;;;;12.52;67.20;102792.88;6098201;19;20463;-79
2023/05/29 05:44:06;;;;;;;7.47;2.53;;;;;;;12.52;66.94;102787.59;6098031;19;20127;-82
2023/05/29 05:46:15;;;;;;;10.60;3.00;;;;;;;12.88;66.29;102787.84;6100142;19;20014;-80
2023/05/29 05:48:20;;;;;;;12.23;3.53;;;;;;;12.94;65.72;102793.84;6100094;19;20011;-81
2023/05/29 05:50:27;;;;;;;11.13;2.35;;;;;;;13.16;64.91;102790.78;6105495;19;20424;-80
2023/05/29 05:52:34;;;;;;;11.52;3.40;;;;;;;13.13;64.58;102794.34;6104909;19;20007;-82
2023/05/29 05:54:46;;;;;;;11.40;2.55;;;;;;;12.97;65.29;102792.91;6105105;19;20040;-81
2023/05/29 05:56:55;;;;;;;7.75;2.78;;;;;;;12.92;65.43;102790.34;6104399;19;20018;-80
2023/05/29 05:59:04;;;;;;;11.02;2.58;;;;;;;13.01;65.40;102802.53;6098995;19;20026;-81
2023/05/29 06:01:15;;;;;;;11.85;2.70;;;;;;;12.96;65.80;102802.59;6101790;19;20051;-82
2023/05/29 06:03:22;;;;;;;9.13;2.83;;;;;;;13.04;65.66;102799.81;6104631;19;20010;-81
2023/05/29 06:05:27;;;;;;;9.50;2.88;;;;;;;12.99;65.58;102806.97;6103493;19;20031;-81
2023/05/29 06:07:36;;;;;;;11.35;3.00;;;;;;;12.99;65.88;102804.31;6101147;19;20598;-81
2023/05/29 06:09:45;;;;;;;9.13;2.65;;;;;;;13.09;65.73;102808.53;6101592;19;20011;-83
2023/05/29 06:11:51;;;;;;;14.20;3.25;;;;;;;13.12;65.49;102815.50;6082942;19;20045;-82
2023/05/29 06:14:01;;;;;;;9.52;2.63;;;;;;;13.07;64.80;102810.31;6095550;19;20015;-79
2023/05/29 06:16:07;;;;;;;8.13;2.90;;;;;;;13.12;65.36;102807.59;6094868;19;20010;-81
2023/05/29 06:18:13;;;;;;;8.48;2.83;;;;;;;13.28;65.30;102802.91;6103699;19;20034;-79
2023/05/29 06:20:21;;;;;;;11.65;3.63;;;;;;;13.21;64.99;102809.19;6097348;19;20006;-80
2023/05/29 06:22:26;;;;;;;9.05;2.70;;;;;;;13.07;64.98;102807.69;6092207;19;20006;-80
2023/05/29 06:24:34;;;;;;;13.60;3.35;;;;;;;13.17;64.87;102803.97;6102515;19;20014;-80
2023/05/29 06:26:41;;;;;;;9.48;2.95;;;;;;;13.24;65.21;102803.81;6105739;19;20046;-81
2023/05/29 06:28:47;;;;;;;12.88;3.10;;;;;;;13.25;64.94;102803.81;6106286;19;20011;-81
2023/05/29 06:30:59;;;;;;;9.20;3.22;;;;;;;13.30;65.03;102806.41;6094601;19;20018;-81
2023/05/29 06:33:04;;;;;;;10.20;2.55;;;;;;;13.26;64.90;102820.50;6093120;19;20017;-80
2023/05/29 06:35:26;;;;;;;13.05;3.08;;;;;;;13.16;64.00;102809.25;6101834;19;20017;-80
2023/05/29 06:37:36;;;;;;;13.82;3.60;;;;;;;13.19;64.75;102806.56;6099985;19;20034;-80
2023/05/29 06:39:45;;;;;;;9.80;2.90;;;;;;;13.16;64.21;102810.16;6107281;19;20075;-80
2023/05/29 06:41:56;;;;;;;11.60;3.25;;;;;;;13.23;64.26;102812.66;6102074;19;20571;-80
2023/05/29 06:44:01;;;;;;;9.98;2.58;;;;;;;13.22;64.30;102813.53;6101943;19;20010;-82
2023/05/29 06:46:12;;;;;;;9.23;2.75;;;;;;;13.33;64.29;102817.75;6104444;19;20014;-80
2023/05/29 06:48:21;;;;;;;9.93;2.92;;;;;;;13.63;63.18;102810.06;6104723;19;20006;-82
2023/05/29 06:50:34;;;;;;;13.98;3.10;;;;;;;13.47;63.38;102808.69;6116849;19;20014;-82
2023/05/29 06:52:41;;;;;;;10.38;3.17;;;;;;;13.50;63.12;102806.81;6114304;19;20046;-82
2023/05/29 06:54:46;;;;;;;10.25;2.80;;;;;;;13.45;63.01;102819.25;6122239;19;20017;-81
2023/05/29 06:56:52;;;;;;;9.95;2.70;;;;;;;13.61;63.07;102819.81;6120909;19;20036;-82
2023/05/29 06:59:14;;;;;;;9.93;3.00;;;;;;;13.59;62.40;102817.22;6119147;19;20105;-81
2023/05/29 07:01:23;;;;;;;12.68;3.50;;;;;;;13.48;63.01;102824.50;6109400;19;19999;-80
2023/05/29 07:03:36;;;;;;;12.10;3.50;;;;;;;13.97;62.62;102820.75;6102683;19;20050;-81
2023/05/29 07:05:42;;;;;;;16.65;3.08;;;;;;;14.10;61.46;102817.84;6121668;19;20018;-80
2023/05/29 07:07:50;;;;;;;13.52;2.78;;;;;;;14.09;61.15;102808.19;6119321;19;20011;-80
2023/05/29 07:09:57;;;;;;;9.65;3.05;;;;;;;14.11;60.82;102827.50;6109699;19;20006;-79
2023/05/29 07:12:05;;;;;;;10.25;2.55;;;;;;;14.03;60.92;102820.66;6104102;19;20141;-81
2023/05/29 07:14:10;;;;;;;11.90;3.20;;;;;;;14.57;60.16;102831.72;6113475;19;20066;-80
2023/05/29 07:16:16;;;;;;;9.88;2.92;;;;;;;14.66;59.20;102820.88;6092178;19;20038;-77
2023/05/29 07:18:30;;;;;;;10.43;3.08;;;;;;;14.78;59.45;102817.06;6096613;19;20436;-78
2023/05/29 07:20:45;;;;;;;;;;;;;;;14.88;59.67;102819.41;6087085;19;20019;-77
2023/05/29 07:22:57;;;;;;;10.40;3.22;;;;;;;15.75;58.29;102825.81;6087598;19;20270;-78
2023/05/29 07:25:05;;;;;;;8.77;2.60;;;;;;;15.97;56.03;102821.56;6094395;19;20007;-77
2023/05/29 07:27:14;;;;;;;13.68;3.13;;;;;;;15.92;54.35;102819.97;6088914;19;20444;-77
2023/05/29 07:29:33;;;;;;;9.70;2.63;;;;;;;15.90;53.76;102822.66;6081257;19;20010;-77
2023/05/29 07:31:55;;;;;;;6.93;2.83;;;;;;;15.68;53.79;102821.56;6092890;19;20018;-77
2023/05/29 07:34:03;;;;;;;7.07;2.40;;;;;;;15.59;53.49;102830.66;6088014;19;20468;-77
2023/05/29 07:36:10;;;;;;;11.38;2.50;;;;;;;15.62;53.65;102833.22;6090254;19;20015;-77
2023/05/29 07:38:17;;;;;;;12.55;2.97;;;;;;;15.66;53.64;102834.84;6088379;19;20027;-79
2023/05/29 07:40:22;;;;;;;4.63;2.33;;;;;;;15.70;53.47;102833.03;6092978;19;20006;-78
2023/05/29 07:42:34;;;;;;;11.35;2.90;;;;;;;15.64;53.96;102831.41;6088568;19;20023;-78
2023/05/29 07:44:44;;;;;;;8.63;2.60;;;;;;;15.75;53.98;102831.97;6103392;19;20027;-79
2023/05/29 07:46:52;;;;;;;7.97;2.35;;;;;;;16.04;53.68;102827.56;6093754;19;20014;-76
2023/05/29 07:48:58;;;;;;;6.15;2.20;;;;;;;15.87;53.59;102827.19;6100025;19;20378;-78
2023/05/29 07:51:10;;;;;;;6.68;2.20;;;;;;;16.00;53.54;102836.50;6099219;19;20010;-78
2023/05/29 07:53:16;;;;;;;14.00;2.58;;;;;;;16.07;52.90;102827.44;6086167;19;20002;-76
2023/05/29 07:55:23;;;;;;;11.35;3.00;;;;;;;15.92;53.38;102838.53;6098916;19;20002;-77
2023/05/29 07:57:31;;;;;;;7.93;2.45;;;;;;;16.13;53.04;102843.16;6091662;19;20013;-78
2023/05/29 07:59:41;;;;;;;7.82;2.58;;;;;;;15.84;52.83;102830.81;6097618;19;20328;-77
2023/05/29 08:01:47;;;;;;;6.43;2.35;;;;;;;15.68;53.53;102845.41;6090684;19;20006;-79
2023/05/29 08:03:58;;;;;;;10.00;2.65;;;;;;;15.65;53.64;102842.88;6089535;19;20333;-78
2023/05/29 08:06:08;;;;;;;8.23;2.90;;;;;;;15.76;52.90;102846.94;6098383;19;20086;-79
2023/05/29 08:08:15;;;;;;;10.25;2.53;;;;;;;15.56;53.53;102849.28;6090935;19;20044;-80
2023/05/29 08:10:21;;;;;;;7.95;2.80;;;;;;;15.44;53.41;102847.88;6099851;19;20006;-79
2023/05/29 08:12:34;;;;;;;9.13;3.25;;;;;;;15.51;53.11;102854.75;6090474;19;20080;-78
2023/05/29 08:14:43;;;;;;;8.10;2.67;;;;;;;16.12;52.08;102856.47;6097314;19;20003;-78
2023/05/29 08:17:02;;;;;;;8.48;2.58;;;;;;;16.38;51.51;102842.38;6100017;19;20006;-78
2023/05/29 08:19:07;;;;;;;8.02;2.67;;;;;;;16.57;50.68;102842.63;6081726;19;20015;-78
2023/05/29 08:21:17;;;;;;;7.85;3.38;;;;;;;16.43;50.93;102846.63;6084564;19;20040;-79
2023/05/29 08:23:41;;;;;;;8.35;2.97;;;;;;;16.53;50.88;102841.84;6102199;19;20411;-84
2023/05/29 08:25:57;;;;;;;10.07;3.08;;;;;;;17.10;50.74;102853.19;6107553;19;20018;-84
2023/05/29 08:28:51;;;;;;;;;;;;;;;;;;;;;
2023/05/29 08:31:02;;;;;;;7.45;2.78;;;;;;;16.70;50.72;102864.31;6103204;19;20468;-83
2023/05/29 08:33:19;;;;;;;7.68;3.08;;;;;;;16.55;50.89;102855.06;6109684;19;20011;-84
2023/05/29 08:35:26;;;;;;;8.32;2.58;;;;;;;16.83;49.42;102850.59;6095307;19;20010;-79
2023/05/29 08:37:38;;;;;;;10.18;2.65;;;;;;;16.93;49.21;102844.94;6098402;19;20020;-78
2023/05/29 08:39:46;;;;;;;10.45;2.65;;;;;;;17.32;48.56;102853.28;6104052;19;20486;-79
2023/05/29 08:42:03;;;;;;;10.65;2.88;;;;;;;17.58;47.52;102849.66;6104748;19;20506;-82
2023/05/29 08:44:19;;;;;;;7.97;2.35;;;;;;;16.79;48.19;102838.34;6096681;19;20354;-81
2023/05/29 08:46:30;;;;;;;8.98;3.10;;;;;;;17.32;47.64;102847.97;6053119;19;20035;-82
2023/05/29 08:48:47;;;;;;;8.85;2.95;;;;;;;17.54;46.84;102859.53;6086012;19;20014;-80
2023/05/29 08:50:57;;;;;;;8.52;2.83;;;;;;;17.81;46.45;102858.59;6095336;19;20078;-80
2023/05/29 08:53:15;;;;;;;7.35;2.20;;;;;;;17.77;45.74;102864.00;6096048;19;20067;-82
2023/05/29 08:55:39;;;;;;;9.68;2.90;;;;;;;18.30;46.22;102852.19;6106465;19;20047;-81
2023/05/29 08:57:45;;;;;;;10.20;3.70;;;;;;;18.32;44.91;102860.94;6099752;19;20011;-82
2023/05/29 08:59:54;;;;;;;6.82;2.75;;;;;;;18.14;45.06;102865.22;6095014;19;19999;-78
2023/05/29 09:01:59;;;;;;;7.53;2.35;;;;;;;18.29;44.38;102865.53;6095028;19;20014;-78
2023/05/29 09:04:08;;;;;;;7.82;2.42;;;;;;;18.24;43.03;102862.19;6099441;19;20014;-79
2023/05/29 09:06:16;;;;;;;7.53;2.45;;;;;;;17.64;43.49;102864.50;6092654;19;20015;-78
2023/05/29 09:08:34;;;;;;;7.00;2.25;;;;;;;17.82;43.58;102862.97;6082718;19;20470;-79
2023/05/29 09:10:49;;;;;;;8.18;2.45;;;;;;;18.26;43.38;102858.53;6096074;19;20037;-83
2023/05/29 09:12:55;;;;;;;8.63;2.70;;;;;;;18.41;43.37;102873.03;6079986;19;20035;-78
2023/05/29 09:15:01;;;;;;;12.25;2.85;;;;;;;18.25;42.28;102864.81;6096376;19;20565;-78
2023/05/29 09:17:08;;;;;;;9.68;2.60;;;;;;;18.12;42.92;102863.56;6097918;19;20035;-79
2023/05/29 09:19:19;;;;;;;7.47;2.75;;;;;;;18.43;42.61;102861.38;6077908;19;20546;-80
2023/05/29 09:21:33;;;;;;;11.45;3.17;;;;;;;18.26;42.59;102873.66;6100332;19;20415;-79
2023/05/29 09:23:48;;;;;;;8.68;2.13;;;;;;;18.58;42.60;102861.66;6080360;19;20010;-79
2023/05/29 09:25:56;;;;;;;8.48;2.58;;;;;;;18.67;42.38;102866.63;6085370;19;20011;-78
2023/05/29 09:28:08;;;;;;;8.18;2.40;;;;;;;18.50;41.81;102851.31;6094859;19;20011;-79
2023/05/29 09:30:33;;;;;;;9.00;2.60;;;;;;;18.66;41.32;102864.84;6092245;19;20041;-79
2023/05/29 09:32:42;;;;;;;6.38;2.22;;;;;;;18.71;41.62;102862.88;6087530;19;20066;-79
2023/05/29 09:34:57;;;;;;;8.60;2.92;;;;;;;18.96;42.40;102859.19;6075261;19;20027;-79
2023/05/29 09:37:17;;;;;;;8.15;2.60;;;;;;;18.53;42.21;102864.50;6067514;19;20051;-78
2023/05/29 09:39:27;;;;;;;6.07;2.20;;;;;;;18.74;41.55;102864.53;6079951;19;20474;-79
2023/05/29 09:41:32;;;;;;;7.45;2.20;;;;;;;18.33;41.41;102859.16;6091156;19;20015;-79
2023/05/29 09:43:41;;;;;;;11.93;3.90;;;;;;;17.97;41.96;102863.22;6097984;19;20027;-79
2023/05/29 09:45:53;;;;;;;7.07;2.78;;;;;;;18.47;41.64;102853.25;6104676;19;20011;-80
2023/05/29 09:48:01;;;;;;;7.40;2.83;;;;;;;18.51;42.38;102846.88;6070089;19;20807;-79
2023/05/29 09:50:20;;;;;;;8.73;2.42;;;;;;;18.88;42.32;102855.97;6084132;19;20110;-78
2023/05/29 09:52:25;;;;;;;8.18;2.97;;;;;;;18.60;42.67;102851.81;6099527;19;20010;-79
2023/05/29 09:54:36;;;;;;;9.68;2.58;;;;;;;18.97;42.29;102853.78;6094685;19;20006;-80
2023/05/29 09:56:45;;;;;;;8.20;3.67;;;;;;;18.72;42.25;102845.97;6091203;19;20019;-79
2023/05/29 09:58:54;;;;;;;8.43;2.63;;;;;;;19.02;41.64;102849.13;6097140;19;20006;-80
2023/05/29 10:01:00;;;;;;;5.93;2.10;;;;;;;18.99;42.35;102840.41;6111678;19;20035;-79
2023/05/29 10:03:09;;;;;;;6.82;2.53;;;;;;;19.25;41.67;102847.25;6107442;19;20007;-78
2023/05/29 10:05:19;;;;;;;7.32;2.50;;;;;;;19.37;40.27;102840.47;6104648;19;20013;-82